Time;durP1;ratioP1;P1;durP2;ratioP2;P2;SDS_P1;SDS_P2;PMS_P1;PMS_P2;Temp;Humidity;BMP_temperature;BMP_pressure;BME280_temperature;BME280_humidity;BME280_pressure;Samples;Min_cycle;Max_cycle;Signal;HPM_P1;HPM_P2
2023/05/12 00:00:33;;;;;;;23.83;14.82;;;;;;;13.17;100.00;101171.81;5023179;28;20029;-74
2023/05/12 00:03:01;;;;;;;28.10;15.60;;;;;;;13.12;100.00;101165.47;5022011;28;20049;-74
2023/05/12 00:05:28;;;;;;;25.27;15.23;;;;;;;13.10;100.00;101165.63;5036463;28;20381;-74
2023/05/12 00:07:53;;;;;;;25.75;14.80;;;;;;;13.08;100.00;101166.78;5023859;28;20064;-74
2023/05/12 00:10:19;;;;;;;23.42;13.57;;;;;;;13.08;100.00;101159.78;5019795;28;20052;-74
2023/05/12 00:12:49;;;;;;;25.80;14.60;;;;;;;13.08;100.00;101162.38;5023624;28;20028;-73
2023/05/12 00:15:18;;;;;;;24.17;13.68;;;;;;;13.08;100.00;101158.97;5019635;28;20041;-73
2023/05/12 00:17:44;;;;;;;27.60;15.57;;;;;;;13.10;100.00;101157.81;5026481;28;20030;-73
2023/05/12 00:20:10;;;;;;;23.90;13.38;;;;;;;13.07;100.00;101152.94;5023309;28;20041;-73
2023/05/12 00:22:36;;;;;;;23.77;14.38;;;;;;;13.03;100.00;101149.03;5019518;28;20114;-74
2023/05/12 00:25:01;;;;;;;21.77;13.05;;;;;;;13.04;100.00;101150.69;5036157;28;20053;-74
2023/05/12 00:27:28;;;;;;;23.73;14.15;;;;;;;13.04;100.00;101150.69;5024101;28;20108;-74
2023/05/12 00:29:54;;;;;;;27.55;15.48;;;;;;;13.00;100.00;101152.78;5026987;28;20052;-74
2023/05/12 00:32:19;;;;;;;25.05;14.13;;;;;;;12.99;100.00;101150.34;5022908;28;20383;-74
2023/05/12 00:34:45;;;;;;;26.75;13.95;;;;;;;12.96;100.00;101148.91;5017749;28;20108;-74
2023/05/12 00:37:10;;;;;;;22.60;12.10;;;;;;;12.96;100.00;101143.69;5026036;28;20040;-74
2023/05/12 00:39:39;;;;;;;22.30;12.98;;;;;;;12.99;100.00;101143.34;5022071;28;20037;-74
2023/05/12 00:42:04;;;;;;;20.35;13.40;;;;;;;13.00;100.00;101139.78;5019585;28;20029;-73
2023/05/12 00:44:30;;;;;;;19.23;12.25;;;;;;;12.96;100.00;101141.09;5023465;28;20565;-74
2023/05/12 00:46:55;;;;;;;17.38;11.88;;;;;;;12.91;100.00;101140.75;5021759;28;20032;-74
2023/05/12 00:49:21;;;;;;;22.45;12.50;;;;;;;12.91;100.00;101138.16;5025483;28;20120;-74
2023/05/12 00:51:47;;;;;;;18.60;11.35;;;;;;;12.91;100.00;101145.16;5022665;28;20032;-74
2023/05/12 00:54:16;;;;;;;20.85;12.27;;;;;;;12.92;100.00;101137.19;5026636;28;20129;-74
2023/05/12 00:56:41;;;;;;;17.50;10.95;;;;;;;12.95;100.00;101125.63;5007519;28;20060;-74
2023/05/12 00:59:08;;;;;;;16.90;11.40;;;;;;;12.88;100.00;101133.25;5021862;28;20403;-74
2023/05/12 01:01:37;;;;;;;15.55;10.73;;;;;;;12.93;100.00;101131.00;5038679;28;20510;-74
2023/05/12 01:04:03;;;;;;;15.60;9.98;;;;;;;12.81;100.00;101130.50;5022377;28;20069;-74
2023/05/12 01:06:38;;;;;;;16.80;11.30;;;;;;;12.80;100.00;101123.66;5033830;28;20025;-74
2023/05/12 01:09:05;;;;;;;16.17;10.90;;;;;;;12.75;100.00;101128.56;5006203;28;20890;-74
2023/05/12 01:11:31;;;;;;;16.33;9.55;;;;;;;12.73;100.00;101121.88;5020309;28;20029;-74
2023/05/12 01:13:56;;;;;;;16.60;10.27;;;;;;;12.69;100.00;101118.78;5026197;28;20488;-74
2023/05/12 01:16:28;;;;;;;15.73;9.50;;;;;;;12.65;100.00;101118.28;5013400;28;20270;-74
2023/05/12 01:18:55;;;;;;;14.73;9.60;;;;;;;12.66;100.00;101116.53;5039101;28;20041;-74
2023/05/12 01:21:21;;;;;;;14.27;8.95;;;;;;;12.61;100.00;101116.19;5021562;28;20080;-74
2023/05/12 01:24:00;;;;;;;12.35;8.27;;;;;;;12.69;100.00;101108.38;5026408;28;20041;-74
2023/05/12 01:26:28;;;;;;;12.48;7.22;;;;;;;12.74;100.00;101113.09;5019146;28;20108;-74
2023/05/12 01:28:56;;;;;;;11.13;7.55;;;;;;;12.67;100.00;101118.13;5039192;28;20041;-74
2023/05/12 01:31:23;;;;;;;10.68;7.38;;;;;;;12.61;100.00;101103.19;5026233;28;20129;-74
2023/05/12 01:33:48;;;;;;;12.00;6.78;;;;;;;12.60;100.00;101110.19;5025314;28;20099;-73
2023/05/12 01:36:14;;;;;;;8.77;6.40;;;;;;;12.60;100.00;101104.97;5026069;28;20105;-74
2023/05/12 01:38:41;;;;;;;8.60;5.70;;;;;;;12.50;100.00;101106.91;5020655;28;20084;-75
2023/05/12 01:41:07;;;;;;;10.48;6.07;;;;;;;12.51;100.00;101107.72;5025363;28;20026;-75
2023/05/12 01:43:33;;;;;;;16.75;6.28;;;;;;;12.53;100.00;101106.59;5027105;28;20045;-75
2023/05/12 01:45:59;;;;;;;7.78;5.47;;;;;;;12.52;100.00;101104.94;5024858;28;20091;-74
2023/05/12 01:48:29;;;;;;;9.15;5.80;;;;;;;12.52;100.00;101098.94;5034358;28;20030;-74
2023/05/12 01:51:00;;;;;;;7.55;5.03;;;;;;;12.46;100.00;101100.41;5023761;28;20096;-74
2023/05/12 01:53:26;;;;;;;7.22;4.95;;;;;;;12.50;100.00;101098.28;5026215;28;20075;-74
2023/05/12 01:55:51;;;;;;;7.57;5.00;;;;;;;12.41;100.00;101095.69;5028584;28;20033;-74
2023/05/12 01:58:21;;;;;;;6.07;4.40;;;;;;;12.39;100.00;101100.22;5021805;28;20052;-74
2023/05/12 02:00:47;;;;;;;6.20;4.45;;;;;;;12.39;100.00;101096.81;5027700;28;20032;-74
2023/05/12 02:03:16;;;;;;;5.63;3.58;;;;;;;12.36;100.00;101095.34;5029827;28;20047;-75
2023/05/12 02:05:41;;;;;;;6.32;3.80;;;;;;;12.34;100.00;101086.06;5026276;28;20030;-75
2023/05/12 02:08:07;;;;;;;3.67;2.60;;;;;;;12.30;100.00;101096.00;5029453;28;20065;-74
2023/05/12 02:10:35;;;;;;;4.82;3.05;;;;;;;12.27;100.00;101089.31;5051710;28;20021;-74
2023/05/12 02:13:01;;;;;;;4.07;2.65;;;;;;;12.23;100.00;101093.22;5026625;28;20041;-74
2023/05/12 02:15:28;;;;;;;4.55;2.80;;;;;;;12.20;100.00;101093.53;5012772;28;20634;-74
2023/05/12 02:17:54;;;;;;;3.00;2.05;;;;;;;12.20;100.00;101090.13;5028758;28;20030;-74
2023/05/12 02:20:21;;;;;;;4.35;1.75;;;;;;;12.16;100.00;101086.22;5012160;28;20480;-74
2023/05/12 02:22:46;;;;;;;2.33;1.60;;;;;;;12.13;100.00;101083.91;5007571;28;20071;-74
2023/05/12 02:25:12;;;;;;;2.75;1.55;;;;;;;12.08;100.00;101087.81;5026020;28;20033;-74
2023/05/12 02:27:37;;;;;;;2.55;1.15;;;;;;;12.16;100.00;101075.81;5025370;28;20033;-75
2023/05/12 02:30:04;;;;;;;1.77;0.98;;;;;;;12.14;100.00;101070.78;5040223;28;20048;-74
2023/05/12 02:32:31;;;;;;;1.88;1.10;;;;;;;12.15;100.00;101066.38;5026413;28;20018;-74
2023/05/12 02:34:57;;;;;;;0.70;0.57;;;;;;;12.22;100.00;101067.38;5004937;28;20061;-74
2023/05/12 02:37:22;;;;;;;2.35;0.70;;;;;;;12.21;100.00;101060.56;5009153;28;20041;-74
2023/05/12 02:39:48;;;;;;;7.63;0.55;;;;;;;12.21;100.00;101068.34;5026359;28;20046;-74
2023/05/12 02:42:14;;;;;;;1.75;0.80;;;;;;;12.13;100.00;101070.94;5027104;28;20037;-74
2023/05/12 02:44:40;;;;;;;1.58;1.02;;;;;;;12.09;100.00;101070.44;5024389;28;20049;-74
2023/05/12 02:47:05;;;;;;;1.13;1.00;;;;;;;12.06;100.00;101065.56;5019067;28;20766;-74
2023/05/12 02:49:31;;;;;;;1.80;1.23;;;;;;;12.05;100.00;101066.53;5004078;28;20048;-74
2023/05/12 02:52:00;;;;;;;2.00;1.27;;;;;;;12.10;100.00;101061.66;5029461;28;20557;-74
2023/05/12 02:54:26;;;;;;;5.38;1.50;;;;;;;12.16;100.00;101060.22;5019658;28;20526;-74
2023/05/12 02:56:52;;;;;;;3.70;1.42;;;;;;;12.15;100.00;101062.00;5020633;28;20029;-74
2023/05/12 02:59:17;;;;;;;3.88;1.40;;;;;;;12.10;100.00;101059.06;5008341;28;20550;-74
2023/05/12 03:01:43;;;;;;;4.10;1.60;;;;;;;12.13;100.00;101058.75;5025997;28;20030;-74
2023/05/12 03:04:11;;;;;;;2.90;1.70;;;;;;;12.09;100.00;101052.22;5022293;28;20045;-74
2023/05/12 03:06:37;;;;;;;2.38;1.30;;;;;;;12.04;100.00;101057.13;5034664;28;20570;-74
2023/05/12 03:09:03;;;;;;;2.13;1.60;;;;;;;12.02;100.00;101053.88;5023932;28;20041;-74
2023/05/12 03:11:28;;;;;;;1.38;1.10;;;;;;;12.07;100.00;101059.38;5024632;28;21083;-74
2023/05/12 03:13:57;;;;;;;3.40;1.70;;;;;;;12.03;100.00;101058.06;5025293;28;20053;-74
2023/05/12 03:16:22;;;;;;;3.40;1.80;;;;;;;12.02;100.00;101059.88;5038839;28;20029;-74
2023/05/12 03:18:48;;;;;;;2.95;1.65;;;;;;;12.02;100.00;101061.66;5027451;28;20041;-74
2023/05/12 03:21:13;;;;;;;2.05;1.55;;;;;;;12.00;100.00;101053.22;5026686;28;20025;-74
2023/05/12 03:23:40;;;;;;;2.30;1.48;;;;;;;11.99;100.00;101057.56;5008776;28;20099;-74
2023/05/12 03:26:05;;;;;;;2.85;1.48;;;;;;;12.03;100.00;101058.06;5039083;28;20248;-74
2023/05/12 03:28:31;;;;;;;4.72;1.98;;;;;;;12.05;100.00;101061.31;5008221;28;20033;-74
2023/05/12 03:30:56;;;;;;;3.28;2.05;;;;;;;12.08;100.00;101064.41;5024320;28;20059;-74
2023/05/12 03:33:22;;;;;;;3.60;2.10;;;;;;;12.11;100.00;101065.91;5008322;28;20064;-74
2023/05/12 03:35:48;;;;;;;5.75;2.50;;;;;;;12.13;100.00;101065.72;5007394;28;20025;-74
2023/05/12 03:38:16;;;;;;;4.57;2.72;;;;;;;12.15;100.00;101058.56;5021549;28;20069;-74
2023/05/12 03:40:41;;;;;;;6.13;3.22;;;;;;;12.15;100.00;101063.78;5024707;28;20060;-74
2023/05/12 03:43:07;;;;;;;3.72;1.98;;;;;;;12.14;100.00;101062.16;5023193;28;20510;-74
2023/05/12 03:45:33;;;;;;;3.78;2.13;;;;;;;12.14;100.00;101060.38;5025631;28;20030;-74
2023/05/12 03:47:58;;;;;;;4.90;2.22;;;;;;;12.15;100.00;101059.41;5026247;28;20034;-74
2023/05/12 03:50:27;;;;;;;7.43;3.03;;;;;;;12.17;100.00;101064.47;5024011;28;20022;-74
2023/05/12 03:52:54;;;;;;;4.68;2.65;;;;;;;12.16;100.00;101065.41;5024929;28;20040;-74
2023/05/12 03:55:20;;;;;;;4.07;2.42;;;;;;;12.14;100.00;101064.75;5025903;28;20479;-74
2023/05/12 03:57:47;;;;;;;5.03;3.20;;;;;;;12.16;100.00;101075.81;5016645;28;20136;-74
2023/05/12 04:00:13;;;;;;;4.97;2.75;;;;;;;12.14;100.00;101078.56;5008314;28;20099;-74
2023/05/12 04:02:41;;;;;;;3.92;2.58;;;;;;;12.15;100.00;101084.56;5026232;28;20409;-74
2023/05/12 04:05:08;;;;;;;4.65;2.63;;;;;;;12.13;100.00;101076.13;5022808;28;20056;-74
2023/05/12 04:07:34;;;;;;;5.07;2.65;;;;;;;12.14;100.00;101077.75;5009828;28;20029;-74
2023/05/12 04:10:04;;;;;;;6.72;3.60;;;;;;;12.21;100.00;101087.34;5026821;28;20399;-74
2023/05/12 04:12:29;;;;;;;6.63;3.80;;;;;;;12.25;100.00;101090.47;5022936;28;20037;-74
2023/05/12 04:14:55;;;;;;;6.60;3.47;;;;;;;12.21;100.00;101084.75;5022202;28;20049;-74
2023/05/12 04:17:20;;;;;;;7.22;3.67;;;;;;;12.18;100.00;101089.47;5040024;28;20036;-74
2023/05/12 04:19:46;;;;;;;10.52;5.50;;;;;;;12.20;100.00;101088.31;5022950;28;20496;-74
2023/05/12 04:22:12;;;;;;;7.53;4.55;;;;;;;12.13;100.00;101097.75;5025670;28;20029;-74
2023/05/12 04:24:38;;;;;;;10.35;5.40;;;;;;;12.18;100.00;101099.88;5035855;28;20046;-74
2023/05/12 04:27:05;;;;;;;8.90;4.90;;;;;;;12.10;100.00;101105.84;5023991;28;20095;-74
2023/05/12 04:29:32;;;;;;;13.18;6.10;;;;;;;12.21;100.00;101099.56;5024890;28;20550;-74
2023/05/12 04:31:58;;;;;;;9.88;5.75;;;;;;;12.16;100.00;101102.63;5036440;28;20033;-74
2023/05/12 04:34:24;;;;;;;10.90;5.57;;;;;;;12.12;100.00;101105.69;5040010;28;20042;-74
2023/05/12 04:36:50;;;;;;;10.50;6.05;;;;;;;12.13;100.00;101105.56;5009009;28;20545;-74
2023/05/12 04:39:16;;;;;;;8.43;5.00;;;;;;;12.08;100.00;101113.00;5024848;28;20494;-74
2023/05/12 04:41:44;;;;;;;7.95;4.47;;;;;;;12.11;100.00;101112.69;5037496;28;20029;-74
2023/05/12 04:44:10;;;;;;;10.10;4.85;;;;;;;12.15;100.00;101108.81;5021074;28;20072;-74
2023/05/12 04:46:36;;;;;;;8.18;4.03;;;;;;;12.11;100.00;101117.91;5021917;28;20041;-74
2023/05/12 04:49:02;;;;;;;6.35;3.78;;;;;;;12.10;100.00;101118.84;5020324;28;20038;-75
2023/05/12 04:51:27;;;;;;;10.55;4.00;;;;;;;12.12;100.00;101123.91;5006050;28;20044;-74
2023/05/12 04:53:52;;;;;;;9.27;3.92;;;;;;;12.12;100.00;101131.69;5019762;28;20052;-74
2023/05/12 04:56:18;;;;;;;7.60;3.72;;;;;;;12.12;100.00;101135.09;5023478;28;20026;-74
2023/05/12 04:58:47;;;;;;;7.72;4.70;;;;;;;12.18;100.00;101144.88;5023543;28;20403;-74
2023/05/12 05:01:12;;;;;;;6.15;3.40;;;;;;;12.17;100.00;101142.44;5025504;28;20022;-74
2023/05/12 05:03:39;;;;;;;6.68;3.55;;;;;;;12.18;100.00;101157.84;5022966;28;20045;-74
2023/05/12 05:06:05;;;;;;;9.32;5.22;;;;;;;12.20;100.00;101157.72;5023539;28;20761;-74
2023/05/12 05:08:31;;;;;;;7.85;4.65;;;;;;;12.20;100.00;101160.31;5026844;28;20042;-74
2023/05/12 05:10:56;;;;;;;7.80;4.80;;;;;;;12.21;100.00;101167.16;5025576;28;20026;-74
2023/05/12 05:13:23;;;;;;;8.82;5.05;;;;;;;12.22;100.00;101168.75;5025351;28;20046;-74
2023/05/12 05:15:54;;;;;;;10.35;4.85;;;;;;;12.24;100.00;101167.66;5028051;28;20044;-75
2023/05/12 05:18:22;;;;;;;7.00;4.97;;;;;;;12.25;100.00;101177.06;5040634;28;20045;-74
2023/05/12 05:20:50;;;;;;;7.47;4.57;;;;;;;12.30;100.00;101175.78;5026172;28;20037;-74
2023/05/12 05:23:16;;;;;;;8.43;4.32;;;;;;;12.31;100.00;101180.81;5009772;28;20052;-74
2023/05/12 05:25:42;;;;;;;6.80;4.47;;;;;;;12.31;100.00;101183.41;5040147;28;20033;-74
2023/05/12 05:28:07;;;;;;;7.53;4.05;;;;;;;12.33;100.00;101184.06;5029929;28;20069;-75
2023/05/12 05:30:35;;;;;;;7.53;4.65;;;;;;;12.34;100.00;101185.72;5043967;28;20484;-75
2023/05/12 05:33:01;;;;;;;8.65;4.22;;;;;;;12.39;100.00;101199.03;5025909;28;20065;-75
2023/05/12 05:35:27;;;;;;;8.88;4.78;;;;;;;12.39;100.00;101187.81;5024406;28;20026;-74
2023/05/12 05:37:53;;;;;;;7.30;4.22;;;;;;;12.47;100.00;101195.66;5028231;28;20048;-74
2023/05/12 05:40:20;;;;;;;8.93;5.28;;;;;;;12.52;100.00;101192.56;5028634;28;20115;-75
2023/05/12 05:42:46;;;;;;;10.82;5.30;;;;;;;12.53;100.00;101199.44;5029346;28;20037;-75
2023/05/12 05:45:12;;;;;;;7.53;5.15;;;;;;;12.61;100.00;101202.03;5029031;28;20026;-74
2023/05/12 05:47:38;;;;;;;10.07;4.95;;;;;;;12.63;100.00;101200.09;5022716;28;20030;-74
2023/05/12 05:50:08;;;;;;;7.82;5.03;;;;;;;12.70;100.00;101205.47;5029102;28;20042;-74
2023/05/12 05:52:36;;;;;;;8.55;4.70;;;;;;;12.69;100.00;101209.84;5028973;28;20031;-74
2023/05/12 05:55:02;;;;;;;7.68;4.47;;;;;;;12.71;100.00;101207.91;5009862;28;20049;-74
2023/05/12 05:57:28;;;;;;;6.60;4.32;;;;;;;12.69;100.00;101209.84;5025644;28;20064;-74
2023/05/12 05:59:56;;;;;;;5.85;3.72;;;;;;;12.78;100.00;101208.09;5038237;28;20038;-74
2023/05/12 06:02:22;;;;;;;7.20;4.22;;;;;;;12.87;100.00;101209.72;5030251;22;20146;-69
2023/05/12 06:04:51;;;;;;;7.70;4.20;;;;;;;12.85;100.00;101220.28;5004967;28;20049;-69
2023/05/12 06:07:17;;;;;;;6.80;3.50;;;;;;;12.92;100.00;101222.25;4986817;28;20030;-68
2023/05/12 06:09:45;;;;;;;4.90;3.72;;;;;;;12.91;100.00;101224.03;5005741;28;20038;-69
2023/05/12 06:12:10;;;;;;;5.95;3.53;;;;;;;12.93;100.00;101232.50;4993750;28;20112;-69
2023/05/12 06:14:36;;;;;;;6.35;3.70;;;;;;;12.96;100.00;101234.78;4987683;28;20050;-69
2023/05/12 06:17:02;;;;;;;4.47;3.20;;;;;;;12.96;100.00;101237.41;4986802;28;20026;-68
2023/05/12 06:19:28;;;;;;;5.20;3.33;;;;;;;13.00;100.00;101243.91;4971117;28;20054;-69
2023/05/12 06:21:53;;;;;;;6.93;3.53;;;;;;;13.14;100.00;101241.63;4991307;28;20783;-69
2023/05/12 06:24:19;;;;;;;6.78;3.58;;;;;;;13.28;100.00;101246.19;4988119;28;20050;-69
2023/05/12 06:26:47;;;;;;;4.95;3.00;;;;;;;13.39;100.00;101242.47;4973589;28;20045;-69
2023/05/12 06:29:14;;;;;;;4.82;3.42;;;;;;;13.41;100.00;101241.34;4988181;28;20125;-69
2023/05/12 06:31:39;;;;;;;4.22;3.25;;;;;;;13.50;100.00;101241.31;5002929;28;20031;-69
2023/05/12 06:34:05;;;;;;;7.20;3.33;;;;;;;13.52;100.00;101248.00;4987700;28;20053;-69
2023/05/12 06:36:32;;;;;;;6.78;4.68;;;;;;;13.54;100.00;101245.22;5006850;28;20069;-68
2023/05/12 06:38:58;;;;;;;11.43;6.32;;;;;;;13.58;100.00;101249.13;4986924;28;20543;-69
2023/05/12 06:41:24;;;;;;;6.05;3.60;;;;;;;13.62;100.00;101253.84;4971216;28;20038;-68
2023/05/12 06:43:53;;;;;;;5.72;3.58;;;;;;;13.64;100.00;101253.69;4987864;28;20741;-69
2023/05/12 06:46:26;;;;;;;5.03;3.80;;;;;;;13.65;100.00;101254.50;4986868;28;20657;-68
2023/05/12 06:48:54;;;;;;;5.32;3.10;;;;;;;13.60;100.00;101244.59;4986164;28;20053;-68
2023/05/12 06:51:20;;;;;;;3.80;2.90;;;;;;;13.73;100.00;101254.47;4988488;28;20096;-67
2023/05/12 06:53:45;;;;;;;4.43;3.58;;;;;;;13.80;100.00;101258.06;4987421;28;20524;-68
2023/05/12 06:56:15;;;;;;;6.38;4.10;;;;;;;13.82;100.00;101259.53;4982925;28;20034;-69
2023/05/12 06:58:48;;;;;;;5.88;3.70;;;;;;;13.85;100.00;101255.78;5002973;28;20042;-68
2023/05/12 07:01:13;;;;;;;7.38;4.10;;;;;;;13.94;100.00;101260.00;5003656;28;20026;-69
2023/05/12 07:03:39;;;;;;;6.82;3.85;;;;;;;14.10;100.00;101266.94;4986198;28;20064;-68
2023/05/12 07:06:05;;;;;;;4.70;3.05;;;;;;;14.20;100.00;101262.38;5002130;28;20033;-68
2023/05/12 07:08:30;;;;;;;8.80;3.47;;;;;;;14.27;100.00;101262.47;5001432;28;20065;-68
2023/05/12 07:10:59;;;;;;;9.60;3.63;;;;;;;14.29;100.00;101262.31;4989172;28;20038;-68
2023/05/12 07:13:24;;;;;;;5.65;3.58;;;;;;;14.38;100.00;101266.53;4981752;28;20090;-69
2023/05/12 07:15:50;;;;;;;6.10;3.13;;;;;;;14.40;100.00;101272.38;4984992;28;20050;-68
2023/05/12 07:18:15;;;;;;;10.70;4.00;;;;;;;14.54;100.00;101270.84;5003715;28;20038;-68
2023/05/12 07:20:41;;;;;;;5.32;3.30;;;;;;;14.82;100.00;101266.00;4987643;28;20026;-68
2023/05/12 07:23:09;;;;;;;7.20;3.20;;;;;;;15.14;99.77;101274.59;4984989;28;20527;-69
2023/05/12 07:25:35;;;;;;;4.78;3.28;;;;;;;15.51;99.62;101270.41;4992707;28;20042;-68
2023/05/12 07:28:04;;;;;;;5.70;3.50;;;;;;;15.80;95.55;101264.44;4989793;28;20100;-69
2023/05/12 07:30:29;;;;;;;8.50;3.13;;;;;;;15.77;92.69;101270.84;5002474;28;20048;-69
2023/05/12 07:32:55;;;;;;;4.85;3.17;;;;;;;16.25;91.31;101272.28;4988371;28;20038;-68
2023/05/12 07:35:21;;;;;;;4.55;3.33;;;;;;;16.49;90.10;101273.78;4987165;28;20041;-68
2023/05/12 07:37:46;;;;;;;5.55;2.92;;;;;;;16.42;87.91;101270.28;4989907;28;20046;-69
2023/05/12 07:40:11;;;;;;;4.13;2.60;;;;;;;16.35;84.77;101276.25;4988228;28;20038;-69
2023/05/12 07:42:37;;;;;;;4.47;3.13;;;;;;;16.76;83.73;101269.66;5002658;28;20072;-69
2023/05/12 07:45:03;;;;;;;4.03;2.58;;;;;;;17.12;83.79;101284.53;4988751;28;20412;-69
2023/05/12 07:47:28;;;;;;;4.47;2.63;;;;;;;17.14;82.55;101282.56;4985613;28;20042;-69
2023/05/12 07:49:54;;;;;;;3.70;2.45;;;;;;;17.43;80.88;101284.22;4988179;28;20054;-68
2023/05/12 07:52:20;;;;;;;9.38;2.58;;;;;;;17.58;78.42;101276.28;4966800;28;20025;-69
2023/05/12 07:54:45;;;;;;;5.28;2.58;;;;;;;17.45;77.90;101284.84;4967747;28;20195;-70
2023/05/12 07:57:11;;;;;;;7.10;3.00;;;;;;;17.42;78.86;101285.22;4986210;28;23236;-69
2023/05/12 07:59:36;;;;;;;3.35;2.45;;;;;;;17.40;81.12;101289.84;4984414;28;20073;-69
2023/05/12 08:02:02;;;;;;;5.78;2.17;;;;;;;17.92;78.54;101281.78;4982919;28;20022;-69
2023/05/12 08:04:27;;;;;;;4.38;2.40;;;;;;;17.85;77.75;101287.78;5003591;28;20050;-70
2023/05/12 08:06:53;;;;;;;5.22;2.15;;;;;;;17.83;76.93;101286.31;4983689;28;20048;-69
2023/05/12 08:09:19;;;;;;;8.07;2.72;;;;;;;17.72;75.11;101285.03;5002344;28;20084;-70
2023/05/12 08:11:48;;;;;;;5.95;2.17;;;;;;;17.98;77.04;101289.66;4986209;28;20395;-69
2023/05/12 08:14:17;;;;;;;4.90;1.77;;;;;;;18.29;76.52;101291.84;4988918;28;20038;-69
2023/05/12 08:16:45;;;;;;;3.97;1.80;;;;;;;18.58;74.79;101294.41;4986067;28;20033;-69
2023/05/12 08:19:13;;;;;;;2.90;1.67;;;;;;;19.02;74.32;101296.56;4985809;28;20042;-70
2023/05/12 08:21:39;;;;;;;7.40;1.98;;;;;;;18.53;71.56;101300.22;4988535;28;20038;-70
2023/05/12 08:24:05;;;;;;;2.13;1.52;;;;;;;17.83;72.61;101307.31;4965948;28;20057;-69
2023/05/12 08:26:30;;;;;;;3.72;2.15;;;;;;;18.58;75.93;101303.06;4990040;28;20053;-69
2023/05/12 08:29:03;;;;;;;3.42;2.20;;;;;;;18.54;71.31;101307.09;4987897;28;20089;-70
2023/05/12 08:31:29;;;;;;;3.50;2.00;;;;;;;17.93;70.74;101307.78;4986434;28;20542;-69
2023/05/12 08:33:57;;;;;;;1.90;1.33;;;;;;;17.77;72.93;101305.44;5000991;28;20121;-69
2023/05/12 08:36:23;;;;;;;3.05;1.98;;;;;;;17.87;74.43;101308.56;4991391;28;20037;-69
2023/05/12 08:38:48;;;;;;;4.15;1.92;;;;;;;17.89;73.30;101319.69;4988320;28;20065;-69
2023/05/12 08:41:42;;;;;;;1.70;1.60;;;;;;;18.37;71.45;101314.50;4968781;28;20378;-69
2023/05/12 08:44:09;;;;;;;4.38;1.90;;;;;;;18.45;72.46;101313.53;4983139;28;20062;-69
2023/05/12 08:46:35;;;;;;;13.23;1.50;;;;;;;18.39;71.97;101316.94;5001096;28;20379;-70
2023/05/12 08:49:03;;;;;;;2.65;1.55;;;;;;;18.09;69.07;101325.88;5001321;28;20047;-70
2023/05/12 08:51:31;;;;;;;1.83;1.45;;;;;;;18.03;71.74;101329.25;4965502;28;20568;-69
2023/05/12 08:53:56;;;;;;;1.50;1.08;;;;;;;17.38;72.70;101336.38;4988446;28;20046;-69
2023/05/12 08:56:23;;;;;;;3.75;1.40;;;;;;;17.45;72.88;101337.25;4983511;28;20045;-69
2023/05/12 08:58:49;;;;;;;4.18;1.88;;;;;;;17.44;75.69;101340.91;5000920;28;20046;-70
2023/05/12 09:01:16;;;;;;;2.38;1.60;;;;;;;17.63;76.99;101330.75;4986969;28;20042;-69
2023/05/12 09:03:41;;;;;;;2.00;1.42;;;;;;;17.66;74.86;101338.25;4986321;28;20140;-70
2023/05/12 09:06:07;;;;;;;5.63;1.60;;;;;;;17.75;77.05;101341.56;4982220;28;20026;-69
2023/05/12 09:08:35;;;;;;;3.47;1.50;;;;;;;17.61;73.50;101338.84;4984036;28;20409;-70
2023/05/12 09:11:01;;;;;;;2.38;1.48;;;;;;;17.75;74.10;101346.81;4986304;28;20088;-70
2023/05/12 09:13:37;;;;;;;2.63;1.70;;;;;;;17.67;71.41;101345.13;4982324;28;20046;-69
2023/05/12 09:16:05;;;;;;;2.92;1.35;;;;;;;17.61;72.41;101345.88;4967021;28;20030;-70
2023/05/12 09:18:50;;;;;;;6.55;1.90;;;;;;;17.52;74.09;101350.44;5000332;28;20112;-70
2023/05/12 09:21:16;;;;;;;8.85;1.98;;;;;;;17.66;73.61;101349.53;4968572;28;20096;-70
2023/05/12 09:23:57;;;;;;;3.47;1.70;;;;;;;17.92;73.05;101349.97;4988166;28;20042;-70
2023/05/12 09:26:27;;;;;;;6.18;1.70;;;;;;;18.18;72.54;101341.47;4983675;28;20073;-69
2023/05/12 09:29:03;;;;;;;5.50;1.80;;;;;;;18.17;71.36;101347.72;4981919;28;20052;-70
2023/05/12 09:31:29;;;;;;;3.05;1.98;;;;;;;18.28;72.51;101344.53;4983425;28;20049;-69
2023/05/12 09:33:55;;;;;;;2.55;1.60;;;;;;;18.34;71.25;101341.13;4998926;28;20548;-69
2023/05/12 09:36:22;;;;;;;2.80;1.50;;;;;;;18.93;71.49;101347.69;4985374;28;20050;-70
2023/05/12 09:39:08;;;;;;;2.83;1.70;;;;;;;19.46;69.47;101341.69;4987104;28;20062;-70
2023/05/12 09:41:43;;;;;;;2.53;1.67;;;;;;;19.53;66.47;101339.06;5008591;28;20030;-69
2023/05/12 09:44:13;;;;;;;3.97;1.30;;;;;;;19.59;64.36;101346.97;4971018;28;20046;-70
2023/05/12 09:46:39;;;;;;;3.63;1.65;;;;;;;19.79;65.12;101340.91;4990753;28;20058;-70
2023/05/12 09:49:05;;;;;;;2.00;1.40;;;;;;;20.10;65.94;101339.44;4974144;28;20046;-70
2023/05/12 09:51:31;;;;;;;4.18;1.45;;;;;;;20.16;63.89;101343.88;4990646;28;20029;-70
2023/05/12 09:53:57;;;;;;;2.47;1.45;;;;;;;20.41;62.88;101352.72;4989320;28;20069;-71
2023/05/12 09:56:26;;;;;;;3.25;1.80;;;;;;;20.04;65.35;101348.94;4991232;28;20062;-71
2023/05/12 09:58:56;;;;;;;4.32;1.60;;;;;;;19.52;63.23;101354.03;4989059;28;20582;-70
2023/05/12 10:01:22;;;;;;;2.70;1.50;;;;;;;19.71;63.76;101349.78;4993376;28;20499;-70
2023/05/12 10:03:53;;;;;;;4.90;1.90;;;;;;;19.93;64.47;101355.69;5004632;28;20129;-70
2023/05/12 10:06:28;;;;;;;2.58;1.60;;;;;;;20.36;61.63;101349.91;4970870;28;20034;-71
2023/05/12 10:09:03;;;;;;;2.20;1.23;;;;;;;20.43;59.88;101350.69;4965060;28;20047;-71
2023/05/12 10:11:29;;;;;;;5.63;1.80;;;;;;;19.76;61.38;101357.09;4986330;28;20041;-70
2023/05/12 10:13:55;;;;;;;3.47;1.63;;;;;;;19.48;61.03;101357.25;5006677;28;20058;-70
2023/05/12 10:16:21;;;;;;;3.38;1.90;;;;;;;19.52;65.25;101361.13;4991974;28;20038;-70
2023/05/12 10:18:48;;;;;;;3.92;1.80;;;;;;;19.93;64.98;101360.09;4984965;28;20050;-70
2023/05/12 10:21:15;;;;;;;2.63;1.80;;;;;;;20.09;63.28;101362.31;4990634;28;20042;-70
2023/05/12 10:23:41;;;;;;;4.88;1.77;;;;;;;20.33;59.26;101362.69;4987658;28;20404;-72
2023/05/12 10:26:10;;;;;;;3.05;1.65;;;;;;;20.09;59.75;101362.31;4977899;28;20034;-70
2023/05/12 10:28:36;;;;;;;3.13;1.83;;;;;;;19.79;59.42;101356.69;4985773;28;20034;-71
2023/05/12 10:31:05;;;;;;;2.17;1.52;;;;;;;20.33;61.35;101360.03;4972828;28;20048;-70
2023/05/12 10:33:31;;;;;;;2.45;1.55;;;;;;;20.63;59.85;101357.75;4985848;28;20057;-71
2023/05/12 10:35:56;;;;;;;4.57;2.25;;;;;;;20.85;56.78;101352.97;4989414;28;20042;-70
2023/05/12 10:38:22;;;;;;;4.30;1.70;;;;;;;20.43;57.59;101348.03;4990558;28;20053;-70
2023/05/12 10:40:52;;;;;;;5.45;2.25;;;;;;;20.69;57.79;101346.34;4992118;28;20286;-70
2023/05/12 10:43:46;;;;;;;3.88;1.90;;;;;;;21.03;60.25;101354.91;4967510;28;20054;-71
2023/05/12 10:46:12;;;;;;;3.00;1.58;;;;;;;21.60;58.49;101347.00;5004364;28;20092;-72
2023/05/12 10:49:06;;;;;;;2.33;1.70;;;;;;;21.56;54.67;101351.91;5001520;28;20560;-71
2023/05/12 10:51:33;;;;;;;2.72;1.73;;;;;;;21.44;54.67;101337.81;4971034;28;20041;-70
2023/05/12 10:54:06;;;;;;;7.53;1.83;;;;;;;21.24;56.40;101343.19;4985073;28;20066;-70
2023/05/12 10:56:38;;;;;;;2.35;1.58;;;;;;;21.32;55.90;101342.97;4972329;28;20080;-71
2023/05/12 10:59:17;;;;;;;2.33;1.33;;;;;;;21.30;52.91;101346.81;4989555;28;20060;-70
2023/05/12 11:01:59;;;;;;;4.45;1.80;;;;;;;21.20;55.74;101345.44;4989985;28;20108;-70
2023/05/12 11:05:00;;;;;;;5.03;1.70;;;;;;;20.92;54.18;101345.03;4985807;28;20050;-70
2023/05/12 11:07:28;;;;;;;3.85;1.75;;;;;;;21.19;55.85;101343.84;4972100;28;20042;-70
2023/05/12 11:09:56;;;;;;;5.43;1.80;;;;;;;21.06;52.62;101346.56;5001794;28;20031;-70
2023/05/12 11:12:22;;;;;;;4.93;1.67;;;;;;;21.34;53.75;101353.25;4983960;28;20038;-70
2023/05/12 11:14:48;;;;;;;15.27;2.38;;;;;;;21.24;54.01;101348.47;4985353;28;20046;-70
2023/05/12 11:17:14;;;;;;;2.75;1.83;;;;;;;21.45;57.08;101349.16;4981068;28;20041;-70